sensor_id;sensor_type;location;lat;lon;timestamp;P1;durP1;ratioP1;P2;durP2;ratioP2
11642;SDS011;5877;50.930;6.918;2023-09-19T00:04:49;4.70;;;1.60;;
11642;SDS011;5877;50.930;6.918;2023-09-19T00:09:44;2.93;;;1.70;;
11642;SDS011;5877;50.930;6.918;2023-09-19T00:14:38;4.83;;;1.73;;
11642;SDS011;5877;50.930;6.918;2023-09-19T00:19:31;4.33;;;1.83;;
11642;SDS011;5877;50.930;6.918;2023-09-19T00:24:27;4.87;;;1.60;;
11642;SDS011;5877;50.930;6.918;2023-09-19T00:29:23;2.83;;;1.70;;
11642;SDS011;5877;50.930;6.918;2023-09-19T00:34:15;4.83;;;1.63;;
11642;SDS011;5877;50.930;6.918;2023-09-19T00:39:09;6.03;;;1.80;;
11642;SDS011;5877;50.930;6.918;2023-09-19T00:44:02;3.70;;;1.70;;
11642;SDS011;5877;50.930;6.918;2023-09-19T00:48:56;4.43;;;1.63;;
11642;SDS011;5877;50.930;6.918;2023-09-19T00:53:49;2.60;;;1.30;;
11642;SDS011;5877;50.930;6.918;2023-09-19T00:58:45;5.37;;;2.00;;
11642;SDS011;5877;50.930;6.918;2023-09-19T01:03:39;6.70;;;1.90;;
11642;SDS011;5877;50.930;6.918;2023-09-19T01:08:38;6.03;;;1.70;;
11642;SDS011;5877;50.930;6.918;2023-09-19T01:13:34;3.70;;;1.70;;
11642;SDS011;5877;50.930;6.918;2023-09-19T01:30:12;5.80;;;1.80;;
11642;SDS011;5877;50.930;6.918;2023-09-19T01:35:15;3.53;;;1.57;;
11642;SDS011;5877;50.930;6.918;2023-09-19T01:40:08;5.80;;;1.73;;
11642;SDS011;5877;50.930;6.918;2023-09-19T01:45:12;6.50;;;2.20;;
11642;SDS011;5877;50.930;6.918;2023-09-19T01:50:17;3.67;;;1.50;;
11642;SDS011;5877;50.930;6.918;2023-09-19T01:55:23;6.13;;;1.77;;
11642;SDS011;5877;50.930;6.918;2023-09-19T02:00:21;6.20;;;2.30;;
11642;SDS011;5877;50.930;6.918;2023-09-19T02:05:23;6.03;;;2.37;;
11642;SDS011;5877;50.930;6.918;2023-09-19T02:10:22;4.77;;;1.93;;
11642;SDS011;5877;50.930;6.918;2023-09-19T02:15:15;6.57;;;2.10;;
11642;SDS011;5877;50.930;6.918;2023-09-19T02:20:07;6.53;;;2.20;;
11642;SDS011;5877;50.930;6.918;2023-09-19T02:25:05;6.37;;;2.20;;
11642;SDS011;5877;50.930;6.918;2023-09-19T02:30:00;6.40;;;1.77;;
11642;SDS011;5877;50.930;6.918;2023-09-19T02:34:55;5.30;;;1.93;;
11642;SDS011;5877;50.930;6.918;2023-09-19T02:39:47;5.77;;;2.13;;
11642;SDS011;5877;50.930;6.918;2023-09-19T02:44:41;8.10;;;2.00;;
11642;SDS011;5877;50.930;6.918;2023-09-19T02:49:35;7.73;;;2.20;;
11642;SDS011;5877;50.930;6.918;2023-09-19T02:54:31;6.40;;;2.07;;
11642;SDS011;5877;50.930;6.918;2023-09-19T02:59:23;6.83;;;2.20;;
11642;SDS011;5877;50.930;6.918;2023-09-19T03:04:16;4.60;;;2.13;;
11642;SDS011;5877;50.930;6.918;2023-09-19T03:09:13;5.67;;;2.13;;
11642;SDS011;5877;50.930;6.918;2023-09-19T03:14:06;7.13;;;2.53;;
11642;SDS011;5877;50.930;6.918;2023-09-19T03:18:58;7.33;;;2.20;;
11642;SDS011;5877;50.930;6.918;2023-09-19T03:23:54;7.53;;;2.00;;
11642;SDS011;5877;50.930;6.918;2023-09-19T03:28:50;4.37;;;1.67;;
11642;SDS011;5877;50.930;6.918;2023-09-19T03:33:45;9.47;;;2.33;;
11642;SDS011;5877;50.930;6.918;2023-09-19T03:38:37;6.37;;;2.27;;
11642;SDS011;5877;50.930;6.918;2023-09-19T03:43:31;7.87;;;2.20;;
11642;SDS011;5877;50.930;6.918;2023-09-19T03:48:28;7.17;;;2.30;;
11642;SDS011;5877;50.930;6.918;2023-09-19T03:53:21;4.67;;;2.00;;
11642;SDS011;5877;50.930;6.918;2023-09-19T03:58:17;7.17;;;2.60;;
11642;SDS011;5877;50.930;6.918;2023-09-19T04:03:12;7.73;;;2.10;;
11642;SDS011;5877;50.930;6.918;2023-09-19T04:08:16;7.07;;;2.10;;
11642;SDS011;5877;50.930;6.918;2023-09-19T04:13:10;8.43;;;2.40;;
11642;SDS011;5877;50.930;6.918;2023-09-19T04:18:02;6.67;;;2.10;;
11642;SDS011;5877;50.930;6.918;2023-09-19T04:22:56;7.03;;;2.17;;
11642;SDS011;5877;50.930;6.918;2023-09-19T04:27:49;6.37;;;2.27;;
11642;SDS011;5877;50.930;6.918;2023-09-19T04:32:41;8.53;;;2.33;;
11642;SDS011;5877;50.930;6.918;2023-09-19T04:37:35;7.23;;;2.40;;
11642;SDS011;5877;50.930;6.918;2023-09-19T04:42:29;8.33;;;2.03;;
11642;SDS011;5877;50.930;6.918;2023-09-19T04:47:23;9.00;;;1.90;;
11642;SDS011;5877;50.930;6.918;2023-09-19T05:12:26;7.67;;;2.40;;
11642;SDS011;5877;50.930;6.918;2023-09-19T05:24:20;5.83;;;2.40;;
11642;SDS011;5877;50.930;6.918;2023-09-19T05:30:13;7.00;;;1.90;;
11642;SDS011;5877;50.930;6.918;2023-09-19T05:35:09;8.93;;;2.00;;
11642;SDS011;5877;50.930;6.918;2023-09-19T05:40:06;10.30;;;2.97;;
11642;SDS011;5877;50.930;6.918;2023-09-19T05:50:27;8.43;;;2.77;;
11642;SDS011;5877;50.930;6.918;2023-09-19T05:55:20;6.30;;;2.37;;
11642;SDS011;5877;50.930;6.918;2023-09-19T06:00:21;11.10;;;2.80;;
11642;SDS011;5877;50.930;6.918;2023-09-19T06:05:21;6.50;;;2.77;;
11642;SDS011;5877;50.930;6.918;2023-09-19T06:10:15;6.20;;;2.80;;
11642;SDS011;5877;50.930;6.918;2023-09-19T06:15:09;6.77;;;2.83;;
11642;SDS011;5877;50.930;6.918;2023-09-19T06:20:12;8.73;;;2.60;;
11642;SDS011;5877;50.930;6.918;2023-09-19T06:25:12;7.67;;;2.87;;
11642;SDS011;5877;50.930;6.918;2023-09-19T06:30:12;7.67;;;2.70;;
11642;SDS011;5877;50.930;6.918;2023-09-19T06:35:06;9.00;;;2.67;;
11642;SDS011;5877;50.930;6.918;2023-09-19T06:40:01;10.13;;;2.67;;
11642;SDS011;5877;50.930;6.918;2023-09-19T06:44:56;10.30;;;2.83;;
11642;SDS011;5877;50.930;6.918;2023-09-19T06:49:48;7.70;;;2.60;;
11642;SDS011;5877;50.930;6.918;2023-09-19T06:59:59;8.90;;;2.23;;
11642;SDS011;5877;50.930;6.918;2023-09-19T07:04:53;7.73;;;2.63;;
11642;SDS011;5877;50.930;6.918;2023-09-19T07:09:45;6.43;;;2.47;;
11642;SDS011;5877;50.930;6.918;2023-09-19T07:14:42;6.67;;;2.30;;
11642;SDS011;5877;50.930;6.918;2023-09-19T07:19:42;9.07;;;3.30;;
11642;SDS011;5877;50.930;6.918;2023-09-19T07:24:45;9.80;;;2.90;;
11642;SDS011;5877;50.930;6.918;2023-09-19T07:29:54;9.23;;;3.60;;
11642;SDS011;5877;50.930;6.918;2023-09-19T07:35:01;6.10;;;3.20;;
11642;SDS011;5877;50.930;6.918;2023-09-19T07:40:16;5.10;;;2.43;;
11642;SDS011;5877;50.930;6.918;2023-09-19T07:45:13;7.87;;;3.03;;
11642;SDS011;5877;50.930;6.918;2023-09-19T07:50:09;9.30;;;2.80;;
11642;SDS011;5877;50.930;6.918;2023-09-19T07:55:04;10.27;;;2.43;;
11642;SDS011;5877;50.930;6.918;2023-09-19T08:00:00;6.10;;;2.20;;
11642;SDS011;5877;50.930;6.918;2023-09-19T08:05:09;7.57;;;2.27;;
11642;SDS011;5877;50.930;6.918;2023-09-19T08:10:04;9.43;;;2.53;;
11642;SDS011;5877;50.930;6.918;2023-09-19T08:15:05;4.57;;;2.27;;
11642;SDS011;5877;50.930;6.918;2023-09-19T08:19:59;5.53;;;2.00;;
11642;SDS011;5877;50.930;6.918;2023-09-19T08:24:53;6.27;;;2.23;;
11642;SDS011;5877;50.930;6.918;2023-09-19T08:29:46;6.37;;;2.20;;
11642;SDS011;5877;50.930;6.918;2023-09-19T08:34:39;5.70;;;1.90;;
11642;SDS011;5877;50.930;6.918;2023-09-19T08:39:33;4.90;;;2.00;;
11642;SDS011;5877;50.930;6.918;2023-09-19T08:44:29;4.57;;;1.63;;
11642;SDS011;5877;50.930;6.918;2023-09-19T08:49:31;4.37;;;1.90;;
11642;SDS011;5877;50.930;6.918;2023-09-19T08:54:31;6.80;;;2.63;;
11642;SDS011;5877;50.930;6.918;2023-09-19T08:59:33;5.23;;;1.73;;
11642;SDS011;5877;50.930;6.918;2023-09-19T09:04:31;4.63;;;1.60;;
11642;SDS011;5877;50.930;6.918;2023-09-19T09:09:30;4.87;;;2.30;;
11642;SDS011;5877;50.930;6.918;2023-09-19T09:14:24;5.87;;;1.83;;
11642;SDS011;5877;50.930;6.918;2023-09-19T09:19:26;5.33;;;1.93;;
11642;SDS011;5877;50.930;6.918;2023-09-19T09:24:34;7.03;;;2.20;;
11642;SDS011;5877;50.930;6.918;2023-09-19T09:29:45;4.27;;;2.00;;
11642;SDS011;5877;50.930;6.918;2023-09-19T09:34:44;5.30;;;2.60;;
11642;SDS011;5877;50.930;6.918;2023-09-19T09:39:39;3.57;;;1.83;;
11642;SDS011;5877;50.930;6.918;2023-09-19T09:44:37;4.63;;;2.00;;
11642;SDS011;5877;50.930;6.918;2023-09-19T09:49:56;3.60;;;2.10;;
11642;SDS011;5877;50.930;6.918;2023-09-19T10:01:01;4.97;;;2.27;;
11642;SDS011;5877;50.930;6.918;2023-09-19T10:06:06;5.57;;;1.80;;
11642;SDS011;5877;50.930;6.918;2023-09-19T10:11:17;5.00;;;2.30;;
11642;SDS011;5877;50.930;6.918;2023-09-19T10:16:12;5.70;;;2.30;;
11642;SDS011;5877;50.930;6.918;2023-09-19T10:21:08;6.20;;;1.63;;
11642;SDS011;5877;50.930;6.918;2023-09-19T10:26:10;7.70;;;1.53;;
11642;SDS011;5877;50.930;6.918;2023-09-19T10:31:31;2.93;;;1.47;;
11642;SDS011;5877;50.930;6.918;2023-09-19T10:36:37;6.40;;;2.20;;
11642;SDS011;5877;50.930;6.918;2023-09-19T10:41:37;5.13;;;2.00;;
11642;SDS011;5877;50.930;6.918;2023-09-19T10:46:31;4.27;;;1.93;;
11642;SDS011;5877;50.930;6.918;2023-09-19T10:51:29;3.60;;;1.47;;
11642;SDS011;5877;50.930;6.918;2023-09-19T10:56:47;2.67;;;1.57;;
11642;SDS011;5877;50.930;6.918;2023-09-19T11:01:48;4.53;;;2.07;;
11642;SDS011;5877;50.930;6.918;2023-09-19T11:11:59;4.47;;;1.67;;
11642;SDS011;5877;50.930;6.918;2023-09-19T11:22:15;5.83;;;1.67;;
11642;SDS011;5877;50.930;6.918;2023-09-19T11:27:15;6.83;;;1.63;;
11642;SDS011;5877;50.930;6.918;2023-09-19T11:32:10;5.97;;;2.30;;
11642;SDS011;5877;50.930;6.918;2023-09-19T11:47:42;4.20;;;2.10;;
11642;SDS011;5877;50.930;6.918;2023-09-19T11:52:39;4.90;;;2.43;;
11642;SDS011;5877;50.930;6.918;2023-09-19T11:57:33;6.07;;;2.20;;
11642;SDS011;5877;50.930;6.918;2023-09-19T12:02:34;4.60;;;2.30;;
11642;SDS011;5877;50.930;6.918;2023-09-19T12:07:41;4.50;;;1.70;;
11642;SDS011;5877;50.930;6.918;2023-09-19T12:12:52;3.30;;;1.53;;
11642;SDS011;5877;50.930;6.918;2023-09-19T12:17:47;4.10;;;1.93;;
11642;SDS011;5877;50.930;6.918;2023-09-19T12:22:58;4.17;;;2.17;;
11642;SDS011;5877;50.930;6.918;2023-09-19T12:27:53;4.30;;;2.67;;
11642;SDS011;5877;50.930;6.918;2023-09-19T12:33:04;5.07;;;1.90;;
11642;SDS011;5877;50.930;6.918;2023-09-19T12:38:01;5.27;;;1.90;;
11642;SDS011;5877;50.930;6.918;2023-09-19T12:42:59;4.73;;;2.30;;
11642;SDS011;5877;50.930;6.918;2023-09-19T12:48:19;4.13;;;2.30;;
11642;SDS011;5877;50.930;6.918;2023-09-19T12:53:42;3.47;;;2.03;;
11642;SDS011;5877;50.930;6.918;2023-09-19T12:58:58;5.60;;;1.60;;
11642;SDS011;5877;50.930;6.918;2023-09-19T13:09:15;3.30;;;1.60;;
11642;SDS011;5877;50.930;6.918;2023-09-19T13:19:40;5.00;;;1.40;;
11642;SDS011;5877;50.930;6.918;2023-09-19T13:25:22;4.77;;;1.50;;
11642;SDS011;5877;50.930;6.918;2023-09-19T13:30:41;3.73;;;1.60;;
11642;SDS011;5877;50.930;6.918;2023-09-19T13:35:38;4.43;;;1.70;;
11642;SDS011;5877;50.930;6.918;2023-09-19T13:40:33;2.30;;;1.30;;
11642;SDS011;5877;50.930;6.918;2023-09-19T13:45:27;3.60;;;1.37;;
11642;SDS011;5877;50.930;6.918;2023-09-19T13:50:28;5.50;;;1.80;;
11642;SDS011;5877;50.930;6.918;2023-09-19T13:55:21;3.77;;;1.60;;
11642;SDS011;5877;50.930;6.918;2023-09-19T14:00:13;3.70;;;1.90;;
11642;SDS011;5877;50.930;6.918;2023-09-19T14:05:08;4.20;;;1.57;;
11642;SDS011;5877;50.930;6.918;2023-09-19T14:10:07;4.27;;;1.40;;
11642;SDS011;5877;50.930;6.918;2023-09-19T14:15:13;2.57;;;1.40;;
11642;SDS011;5877;50.930;6.918;2023-09-19T14:20:08;2.87;;;1.50;;
11642;SDS011;5877;50.930;6.918;2023-09-19T14:25:04;2.03;;;1.10;;
11642;SDS011;5877;50.930;6.918;2023-09-19T14:29:59;2.57;;;1.00;;
11642;SDS011;5877;50.930;6.918;2023-09-19T14:34:52;4.43;;;1.00;;
11642;SDS011;5877;50.930;6.918;2023-09-19T14:39:48;3.30;;;1.30;;
11642;SDS011;5877;50.930;6.918;2023-09-19T14:44:42;4.73;;;1.20;;
11642;SDS011;5877;50.930;6.918;2023-09-19T14:49:37;3.77;;;1.20;;
11642;SDS011;5877;50.930;6.918;2023-09-19T14:54:30;4.53;;;1.17;;
11642;SDS011;5877;50.930;6.918;2023-09-19T14:59:24;2.00;;;1.13;;
11642;SDS011;5877;50.930;6.918;2023-09-19T15:04:19;2.67;;;1.20;;
11642;SDS011;5877;50.930;6.918;2023-09-19T15:09:16;3.43;;;1.07;;
11642;SDS011;5877;50.930;6.918;2023-09-19T15:14:11;4.07;;;1.10;;
11642;SDS011;5877;50.930;6.918;2023-09-19T15:19:04;2.50;;;1.10;;
11642;SDS011;5877;50.930;6.918;2023-09-19T15:23:59;3.50;;;0.90;;
11642;SDS011;5877;50.930;6.918;2023-09-19T15:28:52;2.73;;;1.13;;
11642;SDS011;5877;50.930;6.918;2023-09-19T15:33:46;4.00;;;1.10;;
11642;SDS011;5877;50.930;6.918;2023-09-19T15:43:54;4.60;;;1.37;;
11642;SDS011;5877;50.930;6.918;2023-09-19T15:48:51;3.00;;;1.70;;
11642;SDS011;5877;50.930;6.918;2023-09-19T15:53:49;3.80;;;2.13;;
11642;SDS011;5877;50.930;6.918;2023-09-19T15:58:43;3.90;;;2.43;;
11642;SDS011;5877;50.930;6.918;2023-09-19T16:03:43;3.53;;;1.30;;
11642;SDS011;5877;50.930;6.918;2023-09-19T16:08:40;4.30;;;2.67;;
11642;SDS011;5877;50.930;6.918;2023-09-19T16:13:34;3.63;;;2.10;;
11642;SDS011;5877;50.930;6.918;2023-09-19T16:18:31;3.63;;;1.90;;
11642;SDS011;5877;50.930;6.918;2023-09-19T16:23:40;4.00;;;1.50;;
11642;SDS011;5877;50.930;6.918;2023-09-19T16:28:37;2.60;;;1.80;;
11642;SDS011;5877;50.930;6.918;2023-09-19T16:33:43;4.03;;;1.40;;
11642;SDS011;5877;50.930;6.918;2023-09-19T16:38:39;3.43;;;1.90;;
11642;SDS011;5877;50.930;6.918;2023-09-19T16:43:36;3.80;;;1.80;;
11642;SDS011;5877;50.930;6.918;2023-09-19T16:48:30;3.47;;;2.57;;
11642;SDS011;5877;50.930;6.918;2023-09-19T16:53:26;3.43;;;1.87;;
11642;SDS011;5877;50.930;6.918;2023-09-19T16:58:27;3.10;;;1.77;;
11642;SDS011;5877;50.930;6.918;2023-09-19T17:03:26;3.77;;;1.60;;
11642;SDS011;5877;50.930;6.918;2023-09-19T17:08:20;3.23;;;1.70;;
11642;SDS011;5877;50.930;6.918;2023-09-19T17:13:15;3.03;;;1.70;;
11642;SDS011;5877;50.930;6.918;2023-09-19T17:18:08;5.70;;;3.13;;
11642;SDS011;5877;50.930;6.918;2023-09-19T17:23:06;4.73;;;2.40;;
11642;SDS011;5877;50.930;6.918;2023-09-19T17:28:00;6.50;;;2.73;;
11642;SDS011;5877;50.930;6.918;2023-09-19T17:32:55;3.00;;;1.73;;
11642;SDS011;5877;50.930;6.918;2023-09-19T17:37:48;3.77;;;1.60;;
11642;SDS011;5877;50.930;6.918;2023-09-19T17:42:43;4.57;;;1.40;;
11642;SDS011;5877;50.930;6.918;2023-09-19T17:47:39;3.00;;;1.37;;
11642;SDS011;5877;50.930;6.918;2023-09-19T17:52:40;3.77;;;1.47;;
11642;SDS011;5877;50.930;6.918;2023-09-19T17:57:35;2.23;;;1.30;;
11642;SDS011;5877;50.930;6.918;2023-09-19T18:02:27;3.07;;;1.30;;
11642;SDS011;5877;50.930;6.918;2023-09-19T18:07:20;3.37;;;1.80;;
11642;SDS011;5877;50.930;6.918;2023-09-19T18:12:14;4.83;;;1.77;;
11642;SDS011;5877;50.930;6.918;2023-09-19T18:17:10;4.47;;;1.70;;
11642;SDS011;5877;50.930;6.918;2023-09-19T18:22:24;6.17;;;1.70;;
11642;SDS011;5877;50.930;6.918;2023-09-19T18:27:25;4.43;;;1.20;;
11642;SDS011;5877;50.930;6.918;2023-09-19T18:32:18;2.37;;;1.00;;
11642;SDS011;5877;50.930;6.918;2023-09-19T18:37:12;4.10;;;1.33;;
11642;SDS011;5877;50.930;6.918;2023-09-19T18:42:06;3.80;;;1.40;;
11642;SDS011;5877;50.930;6.918;2023-09-19T18:47:01;2.50;;;1.43;;
11642;SDS011;5877;50.930;6.918;2023-09-19T18:51:55;6.20;;;1.47;;
11642;SDS011;5877;50.930;6.918;2023-09-19T18:56:48;3.90;;;1.20;;
11642;SDS011;5877;50.930;6.918;2023-09-19T19:01:48;3.23;;;1.60;;
11642;SDS011;5877;50.930;6.918;2023-09-19T19:06:43;2.83;;;1.40;;
11642;SDS011;5877;50.930;6.918;2023-09-19T19:11:37;3.40;;;1.27;;
11642;SDS011;5877;50.930;6.918;2023-09-19T19:16:32;1.77;;;1.13;;
11642;SDS011;5877;50.930;6.918;2023-09-19T19:21:27;2.80;;;1.30;;
11642;SDS011;5877;50.930;6.918;2023-09-19T19:26:24;3.13;;;1.40;;
11642;SDS011;5877;50.930;6.918;2023-09-19T19:31:21;1.53;;;1.13;;
11642;SDS011;5877;50.930;6.918;2023-09-19T19:36:15;3.87;;;1.40;;
11642;SDS011;5877;50.930;6.918;2023-09-19T19:41:08;2.77;;;1.33;;
11642;SDS011;5877;50.930;6.918;2023-09-19T19:46:02;1.90;;;1.00;;
11642;SDS011;5877;50.930;6.918;2023-09-19T19:50:56;3.30;;;1.37;;
11642;SDS011;5877;50.930;6.918;2023-09-19T19:55:50;2.23;;;1.23;;
11642;SDS011;5877;50.930;6.918;2023-09-19T20:00:43;2.97;;;1.40;;
11642;SDS011;5877;50.930;6.918;2023-09-19T20:05:38;4.60;;;1.57;;
11642;SDS011;5877;50.930;6.918;2023-09-19T20:10:31;3.60;;;1.30;;
11642;SDS011;5877;50.930;6.918;2023-09-19T20:15:23;2.27;;;1.30;;
11642;SDS011;5877;50.930;6.918;2023-09-19T20:20:18;2.67;;;1.60;;
11642;SDS011;5877;50.930;6.918;2023-09-19T20:25:12;4.63;;;1.40;;
11642;SDS011;5877;50.930;6.918;2023-09-19T20:30:04;4.57;;;1.40;;
11642;SDS011;5877;50.930;6.918;2023-09-19T20:34:58;4.10;;;1.47;;
11642;SDS011;5877;50.930;6.918;2023-09-19T20:39:51;1.93;;;1.20;;
11642;SDS011;5877;50.930;6.918;2023-09-19T20:44:46;3.77;;;1.27;;
11642;SDS011;5877;50.930;6.918;2023-09-19T20:49:39;4.57;;;1.67;;
11642;SDS011;5877;50.930;6.918;2023-09-19T20:54:31;3.00;;;1.63;;
11642;SDS011;5877;50.930;6.918;2023-09-19T20:59:24;3.77;;;1.60;;
11642;SDS011;5877;50.930;6.918;2023-09-19T21:04:19;2.37;;;1.43;;
11642;SDS011;5877;50.930;6.918;2023-09-19T21:09:13;3.10;;;1.40;;
11642;SDS011;5877;50.930;6.918;2023-09-19T21:14:06;2.30;;;1.60;;
11642;SDS011;5877;50.930;6.918;2023-09-19T21:18:59;4.57;;;2.03;;
11642;SDS011;5877;50.930;6.918;2023-09-19T21:23:55;3.13;;;1.43;;
11642;SDS011;5877;50.930;6.918;2023-09-19T21:28:47;2.80;;;1.30;;
11642;SDS011;5877;50.930;6.918;2023-09-19T21:33:42;4.07;;;1.80;;
11642;SDS011;5877;50.930;6.918;2023-09-19T21:38:37;5.20;;;1.60;;
11642;SDS011;5877;50.930;6.918;2023-09-19T21:43:32;4.03;;;1.50;;
11642;SDS011;5877;50.930;6.918;2023-09-19T21:48:24;3.90;;;1.63;;
11642;SDS011;5877;50.930;6.918;2023-09-19T21:53:17;4.53;;;1.80;;
11642;SDS011;5877;50.930;6.918;2023-09-19T21:58:13;4.47;;;1.90;;
11642;SDS011;5877;50.930;6.918;2023-09-19T22:03:07;4.67;;;1.47;;
11642;SDS011;5877;50.930;6.918;2023-09-19T22:08:00;5.60;;;1.93;;
11642;SDS011;5877;50.930;6.918;2023-09-19T22:12:53;3.13;;;1.47;;
11642;SDS011;5877;50.930;6.918;2023-09-19T22:17:46;2.80;;;1.30;;
11642;SDS011;5877;50.930;6.918;2023-09-19T22:22:40;4.47;;;1.70;;
11642;SDS011;5877;50.930;6.918;2023-09-19T22:27:32;6.90;;;1.93;;
11642;SDS011;5877;50.930;6.918;2023-09-19T22:32:27;5.60;;;1.60;;
11642;SDS011;5877;50.930;6.918;2023-09-19T22:37:19;3.83;;;1.47;;
11642;SDS011;5877;50.930;6.918;2023-09-19T22:42:13;3.40;;;1.57;;
11642;SDS011;5877;50.930;6.918;2023-09-19T22:47:08;4.57;;;1.83;;
11642;SDS011;5877;50.930;6.918;2023-09-19T22:52:00;3.17;;;1.70;;
11642;SDS011;5877;50.930;6.918;2023-09-19T22:56:55;4.80;;;1.80;;
11642;SDS011;5877;50.930;6.918;2023-09-19T23:01:48;5.43;;;2.00;;
11642;SDS011;5877;50.930;6.918;2023-09-19T23:06:42;4.80;;;1.90;;
11642;SDS011;5877;50.930;6.918;2023-09-19T23:11:40;3.17;;;1.50;;
11642;SDS011;5877;50.930;6.918;2023-09-19T23:16:33;3.75;;;1.70;;
11642;SDS011;5877;50.930;6.918;2023-09-19T23:21:27;4.60;;;1.90;;
11642;SDS011;5877;50.930;6.918;2023-09-19T23:26:21;3.07;;;1.20;;
11642;SDS011;5877;50.930;6.918;2023-09-19T23:31:16;3.53;;;1.63;;
11642;SDS011;5877;50.930;6.918;2023-09-19T23:36:08;4.27;;;1.70;;
11642;SDS011;5877;50.930;6.918;2023-09-19T23:41:01;4.72;;;1.70;;
11642;SDS011;5877;50.930;6.918;2023-09-19T23:45:56;4.17;;;1.50;;
11642;SDS011;5877;50.930;6.918;2023-09-19T23:50:50;4.67;;;1.50;;
11642;SDS011;5877;50.930;6.918;2023-09-19T23:55:42;4.03;;;1.63;;
